sensor_id;sensor_type;location;lat;lon;timestamp;P1;durP1;ratioP1;P2;durP2;ratioP2
26181;SDS011;13927;51.534;11.866;2023-03-07T00:00:50;35.42;;;18.98;;
26181;SDS011;13927;51.534;11.866;2023-03-07T00:03:16;39.35;;;20.48;;
26181;SDS011;13927;51.534;11.866;2023-03-07T00:05:42;40.33;;;20.95;;
26181;SDS011;13927;51.534;11.866;2023-03-07T00:08:08;39.88;;;20.73;;
26181;SDS011;13927;51.534;11.866;2023-03-07T00:10:35;40.15;;;20.20;;
26181;SDS011;13927;51.534;11.866;2023-03-07T00:13:01;42.00;;;20.52;;
26181;SDS011;13927;51.534;11.866;2023-03-07T00:15:28;39.00;;;20.17;;
26181;SDS011;13927;51.534;11.866;2023-03-07T00:17:54;42.47;;;22.25;;
26181;SDS011;13927;51.534;11.866;2023-03-07T00:20:20;40.45;;;19.85;;
26181;SDS011;13927;51.534;11.866;2023-03-07T00:22:46;40.83;;;20.48;;
26181;SDS011;13927;51.534;11.866;2023-03-07T00:25:12;42.30;;;21.58;;
26181;SDS011;13927;51.534;11.866;2023-03-07T00:27:41;41.55;;;21.30;;
26181;SDS011;13927;51.534;11.866;2023-03-07T00:30:12;40.92;;;21.35;;
26181;SDS011;13927;51.534;11.866;2023-03-07T00:32:39;40.03;;;19.90;;
26181;SDS011;13927;51.534;11.866;2023-03-07T00:35:05;41.58;;;21.83;;
26181;SDS011;13927;51.534;11.866;2023-03-07T00:37:31;40.95;;;20.27;;
26181;SDS011;13927;51.534;11.866;2023-03-07T00:39:57;41.53;;;20.65;;
26181;SDS011;13927;51.534;11.866;2023-03-07T00:42:23;41.75;;;21.33;;
26181;SDS011;13927;51.534;11.866;2023-03-07T00:44:48;40.40;;;21.00;;
26181;SDS011;13927;51.534;11.866;2023-03-07T00:47:14;38.55;;;19.77;;
26181;SDS011;13927;51.534;11.866;2023-03-07T00:49:40;37.50;;;20.33;;
26181;SDS011;13927;51.534;11.866;2023-03-07T00:52:05;39.65;;;20.02;;
26181;SDS011;13927;51.534;11.866;2023-03-07T00:54:31;39.50;;;19.42;;
26181;SDS011;13927;51.534;11.866;2023-03-07T00:56:58;35.92;;;18.55;;
26181;SDS011;13927;51.534;11.866;2023-03-07T00:59:23;37.30;;;19.33;;
26181;SDS011;13927;51.534;11.866;2023-03-07T01:01:49;33.83;;;18.80;;
26181;SDS011;13927;51.534;11.866;2023-03-07T01:04:16;36.58;;;18.98;;
26181;SDS011;13927;51.534;11.866;2023-03-07T01:06:41;34.83;;;19.15;;
26181;SDS011;13927;51.534;11.866;2023-03-07T01:09:07;36.75;;;17.90;;
26181;SDS011;13927;51.534;11.866;2023-03-07T01:11:33;32.88;;;17.80;;
26181;SDS011;13927;51.534;11.866;2023-03-07T01:14:01;31.85;;;17.88;;
26181;SDS011;13927;51.534;11.866;2023-03-07T01:16:29;31.35;;;17.98;;
26181;SDS011;13927;51.534;11.866;2023-03-07T01:18:59;35.55;;;19.25;;
26181;SDS011;13927;51.534;11.866;2023-03-07T01:21:45;30.38;;;17.02;;
26181;SDS011;13927;51.534;11.866;2023-03-07T01:24:12;31.40;;;17.38;;
26181;SDS011;13927;51.534;11.866;2023-03-07T01:26:38;33.63;;;17.85;;
26181;SDS011;13927;51.534;11.866;2023-03-07T01:29:05;32.30;;;18.10;;
26181;SDS011;13927;51.534;11.866;2023-03-07T01:31:31;31.05;;;16.73;;
26181;SDS011;13927;51.534;11.866;2023-03-07T01:33:57;31.15;;;17.15;;
26181;SDS011;13927;51.534;11.866;2023-03-07T01:36:27;31.05;;;15.93;;
26181;SDS011;13927;51.534;11.866;2023-03-07T01:38:58;30.90;;;16.55;;
26181;SDS011;13927;51.534;11.866;2023-03-07T01:41:29;31.17;;;17.52;;
26181;SDS011;13927;51.534;11.866;2023-03-07T01:43:56;33.75;;;17.75;;
26181;SDS011;13927;51.534;11.866;2023-03-07T01:46:44;32.65;;;16.45;;
26181;SDS011;13927;51.534;11.866;2023-03-07T01:49:26;32.17;;;17.60;;
26181;SDS011;13927;51.534;11.866;2023-03-07T01:54:43;31.27;;;16.38;;
26181;SDS011;13927;51.534;11.866;2023-03-07T01:57:23;33.08;;;18.13;;
26181;SDS011;13927;51.534;11.866;2023-03-07T01:59:57;30.52;;;18.17;;
26181;SDS011;13927;51.534;11.866;2023-03-07T02:02:25;32.03;;;17.90;;
26181;SDS011;13927;51.534;11.866;2023-03-07T02:04:54;32.17;;;17.95;;
26181;SDS011;13927;51.534;11.866;2023-03-07T02:07:28;27.73;;;17.05;;
26181;SDS011;13927;51.534;11.866;2023-03-07T02:10:02;30.88;;;18.25;;
26181;SDS011;13927;51.534;11.866;2023-03-07T02:12:29;34.17;;;18.27;;
26181;SDS011;13927;51.534;11.866;2023-03-07T02:14:55;30.30;;;17.88;;
26181;SDS011;13927;51.534;11.866;2023-03-07T02:17:21;33.55;;;17.90;;
26181;SDS011;13927;51.534;11.866;2023-03-07T02:22:29;28.92;;;16.85;;
26181;SDS011;13927;51.534;11.866;2023-03-07T02:25:17;27.95;;;16.88;;
26181;SDS011;13927;51.534;11.866;2023-03-07T02:27:55;31.55;;;17.55;;
26181;SDS011;13927;51.534;11.866;2023-03-07T02:30:23;29.00;;;17.27;;
26181;SDS011;13927;51.534;11.866;2023-03-07T02:32:49;33.58;;;18.33;;
26181;SDS011;13927;51.534;11.866;2023-03-07T02:35:16;31.02;;;17.98;;
26181;SDS011;13927;51.534;11.866;2023-03-07T02:37:46;31.23;;;17.75;;
26181;SDS011;13927;51.534;11.866;2023-03-07T02:40:17;30.20;;;16.80;;
26181;SDS011;13927;51.534;11.866;2023-03-07T02:42:47;30.08;;;18.05;;
26181;SDS011;13927;51.534;11.866;2023-03-07T02:45:17;27.95;;;15.82;;
26181;SDS011;13927;51.534;11.866;2023-03-07T02:47:44;28.08;;;17.08;;
26181;SDS011;13927;51.534;11.866;2023-03-07T02:50:11;30.63;;;16.98;;
26181;SDS011;13927;51.534;11.866;2023-03-07T02:52:38;29.27;;;17.27;;
26181;SDS011;13927;51.534;11.866;2023-03-07T02:55:04;28.05;;;16.75;;
26181;SDS011;13927;51.534;11.866;2023-03-07T02:57:31;29.63;;;17.23;;
26181;SDS011;13927;51.534;11.866;2023-03-07T02:59:57;28.85;;;17.20;;
26181;SDS011;13927;51.534;11.866;2023-03-07T03:02:23;33.17;;;18.35;;
26181;SDS011;13927;51.534;11.866;2023-03-07T03:04:50;28.45;;;16.45;;
26181;SDS011;13927;51.534;11.866;2023-03-07T03:07:15;32.88;;;17.73;;
26181;SDS011;13927;51.534;11.866;2023-03-07T03:09:41;27.60;;;16.40;;
26181;SDS011;13927;51.534;11.866;2023-03-07T03:12:07;28.05;;;16.75;;
26181;SDS011;13927;51.534;11.866;2023-03-07T03:14:33;25.00;;;15.15;;
26181;SDS011;13927;51.534;11.866;2023-03-07T03:16:58;27.85;;;16.33;;
26181;SDS011;13927;51.534;11.866;2023-03-07T03:19:24;26.33;;;15.50;;
26181;SDS011;13927;51.534;11.866;2023-03-07T03:21:50;28.00;;;16.10;;
26181;SDS011;13927;51.534;11.866;2023-03-07T03:24:15;25.25;;;15.50;;
26181;SDS011;13927;51.534;11.866;2023-03-07T03:26:41;27.23;;;15.55;;
26181;SDS011;13927;51.534;11.866;2023-03-07T03:29:07;19.23;;;12.70;;
26181;SDS011;13927;51.534;11.866;2023-03-07T03:31:33;28.48;;;16.80;;
26181;SDS011;13927;51.534;11.866;2023-03-07T03:33:59;22.50;;;15.15;;
26181;SDS011;13927;51.534;11.866;2023-03-07T03:36:25;24.88;;;14.68;;
26181;SDS011;13927;51.534;11.866;2023-03-07T03:38:52;23.15;;;15.05;;
26181;SDS011;13927;51.534;11.866;2023-03-07T03:41:20;26.23;;;13.70;;
26181;SDS011;13927;51.534;11.866;2023-03-07T03:43:46;23.50;;;13.93;;
26181;SDS011;13927;51.534;11.866;2023-03-07T03:46:12;22.35;;;14.35;;
26181;SDS011;13927;51.534;11.866;2023-03-07T03:48:38;23.27;;;14.02;;
26181;SDS011;13927;51.534;11.866;2023-03-07T03:51:06;24.38;;;14.80;;
26181;SDS011;13927;51.534;11.866;2023-03-07T03:53:37;21.13;;;12.55;;
26181;SDS011;13927;51.534;11.866;2023-03-07T03:56:05;22.85;;;13.35;;
26181;SDS011;13927;51.534;11.866;2023-03-07T03:58:33;27.27;;;15.23;;
26181;SDS011;13927;51.534;11.866;2023-03-07T04:01:03;25.88;;;14.65;;
26181;SDS011;13927;51.534;11.866;2023-03-07T04:03:32;23.53;;;14.40;;
26181;SDS011;13927;51.534;11.866;2023-03-07T04:06:00;25.65;;;14.50;;
26181;SDS011;13927;51.534;11.866;2023-03-07T04:08:28;24.73;;;14.13;;
26181;SDS011;13927;51.534;11.866;2023-03-07T04:10:54;23.50;;;13.88;;
26181;SDS011;13927;51.534;11.866;2023-03-07T04:13:20;23.05;;;14.18;;
26181;SDS011;13927;51.534;11.866;2023-03-07T04:15:46;24.20;;;13.88;;
26181;SDS011;13927;51.534;11.866;2023-03-07T04:18:11;21.33;;;13.95;;
26181;SDS011;13927;51.534;11.866;2023-03-07T04:20:37;24.27;;;14.27;;
26181;SDS011;13927;51.534;11.866;2023-03-07T04:23:03;23.08;;;13.95;;
26181;SDS011;13927;51.534;11.866;2023-03-07T04:25:29;24.02;;;13.60;;
26181;SDS011;13927;51.534;11.866;2023-03-07T04:27:55;22.88;;;14.50;;
26181;SDS011;13927;51.534;11.866;2023-03-07T04:30:20;19.67;;;12.95;;
26181;SDS011;13927;51.534;11.866;2023-03-07T04:32:46;22.48;;;13.48;;
26181;SDS011;13927;51.534;11.866;2023-03-07T04:35:12;24.58;;;14.80;;
26181;SDS011;13927;51.534;11.866;2023-03-07T04:37:37;23.60;;;13.55;;
26181;SDS011;13927;51.534;11.866;2023-03-07T04:40:03;26.33;;;15.05;;
26181;SDS011;13927;51.534;11.866;2023-03-07T04:42:29;22.40;;;13.82;;
26181;SDS011;13927;51.534;11.866;2023-03-07T04:44:55;24.35;;;15.27;;
26181;SDS011;13927;51.534;11.866;2023-03-07T04:47:21;29.05;;;16.35;;
26181;SDS011;13927;51.534;11.866;2023-03-07T04:49:47;24.60;;;15.20;;
26181;SDS011;13927;51.534;11.866;2023-03-07T04:52:12;28.63;;;16.33;;
26181;SDS011;13927;51.534;11.866;2023-03-07T04:54:38;24.42;;;15.68;;
26181;SDS011;13927;51.534;11.866;2023-03-07T04:57:04;26.48;;;15.52;;
26181;SDS011;13927;51.534;11.866;2023-03-07T04:59:30;26.38;;;15.82;;
26181;SDS011;13927;51.534;11.866;2023-03-07T05:01:56;28.20;;;15.13;;
26181;SDS011;13927;51.534;11.866;2023-03-07T05:04:21;25.48;;;14.70;;
26181;SDS011;13927;51.534;11.866;2023-03-07T05:06:47;23.63;;;14.23;;
26181;SDS011;13927;51.534;11.866;2023-03-07T05:09:13;24.73;;;14.18;;
26181;SDS011;13927;51.534;11.866;2023-03-07T05:11:39;24.13;;;14.02;;
26181;SDS011;13927;51.534;11.866;2023-03-07T05:14:05;25.42;;;13.98;;
26181;SDS011;13927;51.534;11.866;2023-03-07T05:16:30;22.88;;;13.98;;
26181;SDS011;13927;51.534;11.866;2023-03-07T05:18:57;21.80;;;13.32;;
26181;SDS011;13927;51.534;11.866;2023-03-07T05:21:24;22.15;;;13.15;;
26181;SDS011;13927;51.534;11.866;2023-03-07T05:23:50;22.33;;;13.73;;
26181;SDS011;13927;51.534;11.866;2023-03-07T05:26:16;23.77;;;13.70;;
26181;SDS011;13927;51.534;11.866;2023-03-07T05:28:41;23.10;;;13.63;;
26181;SDS011;13927;51.534;11.866;2023-03-07T05:31:07;23.10;;;13.82;;
26181;SDS011;13927;51.534;11.866;2023-03-07T05:33:33;19.83;;;12.18;;
26181;SDS011;13927;51.534;11.866;2023-03-07T05:35:59;19.63;;;12.48;;
26181;SDS011;13927;51.534;11.866;2023-03-07T05:38:25;21.88;;;13.02;;
26181;SDS011;13927;51.534;11.866;2023-03-07T05:40:51;19.02;;;12.27;;
26181;SDS011;13927;51.534;11.866;2023-03-07T05:43:17;21.45;;;12.63;;
26181;SDS011;13927;51.534;11.866;2023-03-07T05:45:43;20.40;;;11.63;;
26181;SDS011;13927;51.534;11.866;2023-03-07T05:48:08;18.15;;;11.15;;
26181;SDS011;13927;51.534;11.866;2023-03-07T05:50:35;17.75;;;10.68;;
26181;SDS011;13927;51.534;11.866;2023-03-07T05:53:02;17.17;;;11.00;;
26181;SDS011;13927;51.534;11.866;2023-03-07T05:55:29;17.23;;;10.32;;
26181;SDS011;13927;51.534;11.866;2023-03-07T05:57:54;15.55;;;10.82;;
26181;SDS011;13927;51.534;11.866;2023-03-07T06:00:20;16.98;;;11.02;;
26181;SDS011;13927;51.534;11.866;2023-03-07T06:02:46;15.32;;;9.55;;
26181;SDS011;13927;51.534;11.866;2023-03-07T06:05:12;14.65;;;9.32;;
26181;SDS011;13927;51.534;11.866;2023-03-07T06:07:38;16.20;;;10.35;;
26181;SDS011;13927;51.534;11.866;2023-03-07T06:10:04;15.23;;;10.00;;
26181;SDS011;13927;51.534;11.866;2023-03-07T06:12:31;14.25;;;9.05;;
26181;SDS011;13927;51.534;11.866;2023-03-07T06:14:57;14.88;;;9.45;;
26181;SDS011;13927;51.534;11.866;2023-03-07T06:17:22;14.73;;;9.25;;
26181;SDS011;13927;51.534;11.866;2023-03-07T06:19:48;14.13;;;9.38;;
26181;SDS011;13927;51.534;11.866;2023-03-07T06:22:15;14.80;;;9.50;;
26181;SDS011;13927;51.534;11.866;2023-03-07T06:24:40;14.93;;;9.65;;
26181;SDS011;13927;51.534;11.866;2023-03-07T06:27:06;13.57;;;9.07;;
26181;SDS011;13927;51.534;11.866;2023-03-07T06:29:32;14.63;;;9.13;;
26181;SDS011;13927;51.534;11.866;2023-03-07T06:31:58;15.20;;;9.88;;
26181;SDS011;13927;51.534;11.866;2023-03-07T06:34:24;12.35;;;8.02;;
26181;SDS011;13927;51.534;11.866;2023-03-07T06:36:49;14.02;;;9.05;;
26181;SDS011;13927;51.534;11.866;2023-03-07T06:39:15;15.93;;;9.45;;
26181;SDS011;13927;51.534;11.866;2023-03-07T06:41:45;13.57;;;9.55;;
26181;SDS011;13927;51.534;11.866;2023-03-07T06:44:15;14.13;;;8.93;;
26181;SDS011;13927;51.534;11.866;2023-03-07T06:46:43;13.25;;;8.73;;
26181;SDS011;13927;51.534;11.866;2023-03-07T06:49:09;12.65;;;8.43;;
26181;SDS011;13927;51.534;11.866;2023-03-07T06:51:35;12.30;;;8.45;;
26181;SDS011;13927;51.534;11.866;2023-03-07T06:54:01;13.27;;;8.00;;
26181;SDS011;13927;51.534;11.866;2023-03-07T06:56:27;13.82;;;8.95;;
26181;SDS011;13927;51.534;11.866;2023-03-07T06:58:54;12.05;;;7.68;;
26181;SDS011;13927;51.534;11.866;2023-03-07T07:01:20;12.73;;;8.13;;
26181;SDS011;13927;51.534;11.866;2023-03-07T07:03:49;11.98;;;8.18;;
26181;SDS011;13927;51.534;11.866;2023-03-07T07:06:15;13.20;;;8.82;;
26181;SDS011;13927;51.534;11.866;2023-03-07T07:08:41;12.18;;;8.43;;
26181;SDS011;13927;51.534;11.866;2023-03-07T07:11:06;13.40;;;8.18;;
26181;SDS011;13927;51.534;11.866;2023-03-07T07:13:32;10.38;;;7.53;;
26181;SDS011;13927;51.534;11.866;2023-03-07T07:16:02;12.57;;;8.40;;
26181;SDS011;13927;51.534;11.866;2023-03-07T07:18:32;10.82;;;7.65;;
26181;SDS011;13927;51.534;11.866;2023-03-07T07:20:58;11.45;;;7.75;;
26181;SDS011;13927;51.534;11.866;2023-03-07T07:23:23;11.52;;;7.93;;
26181;SDS011;13927;51.534;11.866;2023-03-07T07:25:51;10.77;;;7.05;;
26181;SDS011;13927;51.534;11.866;2023-03-07T07:28:17;10.80;;;7.43;;
26181;SDS011;13927;51.534;11.866;2023-03-07T07:30:42;11.30;;;7.18;;
26181;SDS011;13927;51.534;11.866;2023-03-07T07:33:08;11.73;;;7.35;;
26181;SDS011;13927;51.534;11.866;2023-03-07T07:35:34;10.40;;;7.25;;
26181;SDS011;13927;51.534;11.866;2023-03-07T07:38:00;10.38;;;7.63;;
26181;SDS011;13927;51.534;11.866;2023-03-07T07:40:25;9.77;;;7.22;;
26181;SDS011;13927;51.534;11.866;2023-03-07T07:42:51;9.80;;;7.00;;
26181;SDS011;13927;51.534;11.866;2023-03-07T07:45:22;10.65;;;7.75;;
26181;SDS011;13927;51.534;11.866;2023-03-07T07:47:49;10.88;;;7.32;;
26181;SDS011;13927;51.534;11.866;2023-03-07T07:50:19;9.18;;;6.72;;
26181;SDS011;13927;51.534;11.866;2023-03-07T07:52:46;8.80;;;6.80;;
26181;SDS011;13927;51.534;11.866;2023-03-07T07:55:13;9.43;;;6.82;;
26181;SDS011;13927;51.534;11.866;2023-03-07T07:57:39;10.13;;;6.10;;
26181;SDS011;13927;51.534;11.866;2023-03-07T08:00:07;9.77;;;7.50;;
26181;SDS011;13927;51.534;11.866;2023-03-07T08:02:35;8.93;;;6.45;;
26181;SDS011;13927;51.534;11.866;2023-03-07T08:05:01;8.73;;;6.82;;
26181;SDS011;13927;51.534;11.866;2023-03-07T08:07:31;9.65;;;7.57;;
26181;SDS011;13927;51.534;11.866;2023-03-07T08:09:57;10.30;;;7.40;;
26181;SDS011;13927;51.534;11.866;2023-03-07T08:12:23;9.60;;;6.70;;
26181;SDS011;13927;51.534;11.866;2023-03-07T08:14:48;9.43;;;6.30;;
26181;SDS011;13927;51.534;11.866;2023-03-07T08:17:14;10.60;;;6.32;;
26181;SDS011;13927;51.534;11.866;2023-03-07T08:19:40;9.77;;;7.35;;
26181;SDS011;13927;51.534;11.866;2023-03-07T08:22:05;10.48;;;7.03;;
26181;SDS011;13927;51.534;11.866;2023-03-07T08:24:31;9.02;;;6.70;;
26181;SDS011;13927;51.534;11.866;2023-03-07T08:26:59;10.07;;;6.95;;
26181;SDS011;13927;51.534;11.866;2023-03-07T08:29:25;11.60;;;7.18;;
26181;SDS011;13927;51.534;11.866;2023-03-07T08:31:52;10.25;;;6.70;;
26181;SDS011;13927;51.534;11.866;2023-03-07T08:34:18;8.82;;;6.30;;
26181;SDS011;13927;51.534;11.866;2023-03-07T08:36:45;9.73;;;7.43;;
26181;SDS011;13927;51.534;11.866;2023-03-07T08:39:10;10.02;;;7.55;;
26181;SDS011;13927;51.534;11.866;2023-03-07T08:41:37;9.63;;;7.03;;
26181;SDS011;13927;51.534;11.866;2023-03-07T08:44:03;8.93;;;7.13;;
26181;SDS011;13927;51.534;11.866;2023-03-07T08:46:29;9.57;;;6.90;;
26181;SDS011;13927;51.534;11.866;2023-03-07T08:48:54;9.98;;;7.50;;
26181;SDS011;13927;51.534;11.866;2023-03-07T08:51:20;10.13;;;7.50;;
26181;SDS011;13927;51.534;11.866;2023-03-07T08:53:46;9.70;;;7.38;;
26181;SDS011;13927;51.534;11.866;2023-03-07T08:56:13;8.65;;;7.32;;
26181;SDS011;13927;51.534;11.866;2023-03-07T08:58:41;10.90;;;7.68;;
26181;SDS011;13927;51.534;11.866;2023-03-07T09:01:07;9.90;;;7.65;;
26181;SDS011;13927;51.534;11.866;2023-03-07T09:03:34;10.90;;;7.95;;
26181;SDS011;13927;51.534;11.866;2023-03-07T09:06:01;9.70;;;7.78;;
26181;SDS011;13927;51.534;11.866;2023-03-07T09:08:28;10.43;;;8.18;;
26181;SDS011;13927;51.534;11.866;2023-03-07T09:10:53;9.88;;;7.70;;
26181;SDS011;13927;51.534;11.866;2023-03-07T09:13:19;9.52;;;7.10;;
26181;SDS011;13927;51.534;11.866;2023-03-07T09:15:45;10.15;;;7.70;;
26181;SDS011;13927;51.534;11.866;2023-03-07T09:18:11;10.02;;;7.72;;
26181;SDS011;13927;51.534;11.866;2023-03-07T09:20:37;10.50;;;7.75;;
26181;SDS011;13927;51.534;11.866;2023-03-07T09:23:03;12.10;;;9.00;;
26181;SDS011;13927;51.534;11.866;2023-03-07T09:25:30;12.52;;;9.48;;
26181;SDS011;13927;51.534;11.866;2023-03-07T09:27:56;11.77;;;8.93;;
26181;SDS011;13927;51.534;11.866;2023-03-07T09:30:22;10.82;;;8.38;;
26181;SDS011;13927;51.534;11.866;2023-03-07T09:32:49;10.93;;;8.50;;
26181;SDS011;13927;51.534;11.866;2023-03-07T09:35:16;12.32;;;8.40;;
26181;SDS011;13927;51.534;11.866;2023-03-07T09:37:41;13.07;;;8.75;;
26181;SDS011;13927;51.534;11.866;2023-03-07T09:40:09;13.45;;;9.98;;
26181;SDS011;13927;51.534;11.866;2023-03-07T09:42:59;13.30;;;9.25;;
26181;SDS011;13927;51.534;11.866;2023-03-07T09:54:16;14.43;;;10.13;;
26181;SDS011;13927;51.534;11.866;2023-03-07T09:56:48;13.25;;;9.23;;
26181;SDS011;13927;51.534;11.866;2023-03-07T09:59:41;13.05;;;10.43;;
26181;SDS011;13927;51.534;11.866;2023-03-07T10:02:14;12.63;;;9.88;;
26181;SDS011;13927;51.534;11.866;2023-03-07T10:04:53;13.52;;;10.18;;
26181;SDS011;13927;51.534;11.866;2023-03-07T10:07:32;12.52;;;9.60;;
26181;SDS011;13927;51.534;11.866;2023-03-07T10:10:00;13.52;;;10.32;;
26181;SDS011;13927;51.534;11.866;2023-03-07T10:21:13;14.10;;;10.13;;
26181;SDS011;13927;51.534;11.866;2023-03-07T10:29:10;14.13;;;10.30;;
26181;SDS011;13927;51.534;11.866;2023-03-07T10:31:41;12.40;;;8.88;;
26181;SDS011;13927;51.534;11.866;2023-03-07T10:34:27;14.25;;;10.45;;
26181;SDS011;13927;51.534;11.866;2023-03-07T10:37:09;14.13;;;10.68;;
26181;SDS011;13927;51.534;11.866;2023-03-07T10:39:42;13.50;;;9.77;;
26181;SDS011;13927;51.534;11.866;2023-03-07T10:42:18;11.95;;;9.45;;
26181;SDS011;13927;51.534;11.866;2023-03-07T10:44:47;14.73;;;10.45;;
26181;SDS011;13927;51.534;11.866;2023-03-07T10:49:47;14.30;;;10.13;;
26181;SDS011;13927;51.534;11.866;2023-03-07T10:52:26;14.30;;;9.85;;
26181;SDS011;13927;51.534;11.866;2023-03-07T11:06:52;15.60;;;11.57;;
26181;SDS011;13927;51.534;11.866;2023-03-07T11:09:25;17.55;;;11.20;;
26181;SDS011;13927;51.534;11.866;2023-03-07T11:12:18;16.20;;;10.80;;
26181;SDS011;13927;51.534;11.866;2023-03-07T11:14:46;13.55;;;9.27;;
26181;SDS011;13927;51.534;11.866;2023-03-07T11:17:19;12.05;;;9.13;;
26181;SDS011;13927;51.534;11.866;2023-03-07T11:19:57;13.38;;;10.63;;
26181;SDS011;13927;51.534;11.866;2023-03-07T11:22:32;12.13;;;8.88;;
26181;SDS011;13927;51.534;11.866;2023-03-07T11:27:47;13.75;;;10.25;;
26181;SDS011;13927;51.534;11.866;2023-03-07T11:30:18;12.88;;;8.65;;
26181;SDS011;13927;51.534;11.866;2023-03-07T11:33:09;15.27;;;10.15;;
26181;SDS011;13927;51.534;11.866;2023-03-07T11:35:52;13.38;;;9.35;;
26181;SDS011;13927;51.534;11.866;2023-03-07T11:38:40;12.98;;;9.93;;
26181;SDS011;13927;51.534;11.866;2023-03-07T11:41:26;13.43;;;9.32;;
26181;SDS011;13927;51.534;11.866;2023-03-07T11:47:22;13.23;;;9.55;;
26181;SDS011;13927;51.534;11.866;2023-03-07T11:58:49;12.98;;;9.18;;
26181;SDS011;13927;51.534;11.866;2023-03-07T12:04:38;12.77;;;8.95;;
26181;SDS011;13927;51.534;11.866;2023-03-07T12:07:37;13.50;;;9.32;;
26181;SDS011;13927;51.534;11.866;2023-03-07T12:13:02;11.10;;;8.20;;
26181;SDS011;13927;51.534;11.866;2023-03-07T12:15:39;14.25;;;9.32;;
26181;SDS011;13927;51.534;11.866;2023-03-07T12:18:45;13.98;;;9.38;;
26181;SDS011;13927;51.534;11.866;2023-03-07T12:24:39;12.65;;;8.75;;
26181;SDS011;13927;51.534;11.866;2023-03-07T12:27:34;13.07;;;9.43;;
26181;SDS011;13927;51.534;11.866;2023-03-07T12:30:14;11.35;;;9.07;;
26181;SDS011;13927;51.534;11.866;2023-03-07T12:32:51;11.93;;;8.77;;
26181;SDS011;13927;51.534;11.866;2023-03-07T12:35:25;14.18;;;7.93;;
26181;SDS011;13927;51.534;11.866;2023-03-07T12:38:08;13.80;;;9.57;;
26181;SDS011;13927;51.534;11.866;2023-03-07T12:40:44;14.25;;;9.60;;
26181;SDS011;13927;51.534;11.866;2023-03-07T12:46:03;12.27;;;9.05;;
26181;SDS011;13927;51.534;11.866;2023-03-07T12:49:08;13.30;;;9.02;;
26181;SDS011;13927;51.534;11.866;2023-03-07T12:51:52;13.00;;;8.80;;
26181;SDS011;13927;51.534;11.866;2023-03-07T12:54:24;13.45;;;9.30;;
26181;SDS011;13927;51.534;11.866;2023-03-07T12:56:56;13.65;;;9.65;;
26181;SDS011;13927;51.534;11.866;2023-03-07T12:59:52;14.18;;;9.32;;
26181;SDS011;13927;51.534;11.866;2023-03-07T13:02:26;13.15;;;8.50;;
26181;SDS011;13927;51.534;11.866;2023-03-07T13:04:54;11.13;;;8.85;;
26181;SDS011;13927;51.534;11.866;2023-03-07T13:07:26;14.95;;;8.55;;
26181;SDS011;13927;51.534;11.866;2023-03-07T13:09:54;13.80;;;9.37;;
26181;SDS011;13927;51.534;11.866;2023-03-07T13:12:28;12.82;;;8.85;;
26181;SDS011;13927;51.534;11.866;2023-03-07T13:27:50;2.05;;;1.02;;
26181;SDS011;13927;51.534;11.866;2023-03-07T13:33:01;1.50;;;1.10;;
26181;SDS011;13927;51.534;11.866;2023-03-07T13:35:53;2.78;;;1.23;;
26181;SDS011;13927;51.534;11.866;2023-03-07T13:40:56;1.85;;;0.93;;
26181;SDS011;13927;51.534;11.866;2023-03-07T13:46:00;3.58;;;0.80;;
26181;SDS011;13927;51.534;11.866;2023-03-07T14:01:19;1.23;;;0.80;;
26181;SDS011;13927;51.534;11.866;2023-03-07T14:06:30;1.85;;;1.00;;
26181;SDS011;13927;51.534;11.866;2023-03-07T14:09:03;1.27;;;0.85;;
26181;SDS011;13927;51.534;11.866;2023-03-07T14:11:47;1.92;;;1.00;;
26181;SDS011;13927;51.534;11.866;2023-03-07T14:17:36;2.55;;;1.13;;
26181;SDS011;13927;51.534;11.866;2023-03-07T14:26:19;1.88;;;1.10;;
26181;SDS011;13927;51.534;11.866;2023-03-07T14:29:00;1.85;;;1.20;;
26181;SDS011;13927;51.534;11.866;2023-03-07T14:31:42;1.83;;;1.27;;
26181;SDS011;13927;51.534;11.866;2023-03-07T14:34:14;1.63;;;1.15;;
26181;SDS011;13927;51.534;11.866;2023-03-07T14:39:50;2.53;;;1.00;;
26181;SDS011;13927;51.534;11.866;2023-03-07T14:42:51;1.95;;;1.20;;
26181;SDS011;13927;51.534;11.866;2023-03-07T14:51:13;2.75;;;2.22;;
26181;SDS011;13927;51.534;11.866;2023-03-07T14:53:51;2.60;;;2.33;;
26181;SDS011;13927;51.534;11.866;2023-03-07T14:56:19;2.55;;;2.15;;
26181;SDS011;13927;51.534;11.866;2023-03-07T14:58:50;2.45;;;1.90;;
26181;SDS011;13927;51.534;11.866;2023-03-07T15:01:19;2.78;;;1.63;;
26181;SDS011;13927;51.534;11.866;2023-03-07T15:03:48;2.13;;;1.60;;
26181;SDS011;13927;51.534;11.866;2023-03-07T15:06:18;3.00;;;1.50;;
26181;SDS011;13927;51.534;11.866;2023-03-07T15:08:46;3.65;;;2.20;;
26181;SDS011;13927;51.534;11.866;2023-03-07T15:14:14;1.92;;;1.23;;
26181;SDS011;13927;51.534;11.866;2023-03-07T15:16:49;2.05;;;1.20;;
26181;SDS011;13927;51.534;11.866;2023-03-07T15:25:25;1.83;;;1.27;;
26181;SDS011;13927;51.534;11.866;2023-03-07T15:28:05;2.67;;;1.60;;
26181;SDS011;13927;51.534;11.866;2023-03-07T15:30:41;3.63;;;2.60;;
26181;SDS011;13927;51.534;11.866;2023-03-07T15:33:15;2.80;;;1.92;;
26181;SDS011;13927;51.534;11.866;2023-03-07T15:36:06;2.25;;;0.93;;
26181;SDS011;13927;51.534;11.866;2023-03-07T15:38:35;4.80;;;1.10;;
26181;SDS011;13927;51.534;11.866;2023-03-07T15:41:01;2.05;;;1.70;;
26181;SDS011;13927;51.534;11.866;2023-03-07T15:46:37;1.67;;;1.20;;
26181;SDS011;13927;51.534;11.866;2023-03-07T15:49:13;2.00;;;1.17;;
26181;SDS011;13927;51.534;11.866;2023-03-07T15:51:48;1.40;;;0.98;;
26181;SDS011;13927;51.534;11.866;2023-03-07T15:54:30;4.68;;;1.00;;
26181;SDS011;13927;51.534;11.866;2023-03-07T15:57:01;1.73;;;1.13;;
26181;SDS011;13927;51.534;11.866;2023-03-07T15:59:39;2.33;;;1.08;;
26181;SDS011;13927;51.534;11.866;2023-03-07T16:04:57;1.40;;;0.82;;
26181;SDS011;13927;51.534;11.866;2023-03-07T16:07:30;1.73;;;0.85;;
26181;SDS011;13927;51.534;11.866;2023-03-07T16:09:55;2.08;;;0.95;;
26181;SDS011;13927;51.534;11.866;2023-03-07T16:12:21;1.58;;;0.82;;
26181;SDS011;13927;51.534;11.866;2023-03-07T16:14:49;1.52;;;1.02;;
26181;SDS011;13927;51.534;11.866;2023-03-07T16:17:29;19.17;;;14.45;;
26181;SDS011;13927;51.534;11.866;2023-03-07T16:22:25;1.80;;;1.02;;
26181;SDS011;13927;51.534;11.866;2023-03-07T16:24:53;2.63;;;1.02;;
26181;SDS011;13927;51.534;11.866;2023-03-07T16:27:19;2.28;;;1.40;;
26181;SDS011;13927;51.534;11.866;2023-03-07T16:29:47;3.78;;;1.52;;
26181;SDS011;13927;51.534;11.866;2023-03-07T16:32:15;3.45;;;1.10;;
26181;SDS011;13927;51.534;11.866;2023-03-07T16:34:43;1.13;;;0.93;;
26181;SDS011;13927;51.534;11.866;2023-03-07T16:37:09;1.15;;;0.85;;
26181;SDS011;13927;51.534;11.866;2023-03-07T16:39:35;1.02;;;0.80;;
26181;SDS011;13927;51.534;11.866;2023-03-07T16:42:02;1.52;;;0.90;;
26181;SDS011;13927;51.534;11.866;2023-03-07T16:44:29;1.80;;;1.25;;
26181;SDS011;13927;51.534;11.866;2023-03-07T16:47:14;1.77;;;1.13;;
26181;SDS011;13927;51.534;11.866;2023-03-07T16:49:41;4.95;;;1.40;;
26181;SDS011;13927;51.534;11.866;2023-03-07T16:52:11;2.80;;;1.40;;
26181;SDS011;13927;51.534;11.866;2023-03-07T16:54:39;2.45;;;1.33;;